createdAt,value
2023-03-29T00:03:39.764Z,98376.69
2023-03-29T00:08:42.760Z,98365.44
2023-03-29T00:13:45.245Z,98370.88
2023-03-29T00:18:47.962Z,98358.88
2023-03-29T00:23:50.409Z,98351.56
2023-03-29T00:28:52.864Z,98352.16
2023-03-29T00:33:56.188Z,98347.78
2023-03-29T00:38:58.889Z,98337.03
2023-03-29T00:44:04.411Z,98330.81
2023-03-29T00:49:12.983Z,98325.28
2023-03-29T00:54:19.736Z,98336.94
2023-03-29T00:59:28.737Z,98323.03
2023-03-29T01:04:46.784Z,98319.91
2023-03-29T01:10:02.351Z,98319.09
2023-03-29T01:15:12.137Z,98303.91
2023-03-29T01:20:43.391Z,98283.78
2023-03-29T01:26:11.763Z,98282.56
2023-03-29T01:31:30.712Z,98286.16
2023-03-29T01:36:44.790Z,98268.34
2023-03-29T01:42:21.123Z,98263.72
2023-03-29T01:47:47.541Z,98253.09
2023-03-29T01:53:49.083Z,98252.59
2023-03-29T01:58:57.467Z,98228.34
2023-03-29T02:04:03.436Z,98202.50
2023-03-29T02:09:09.261Z,98199.34
2023-03-29T02:14:14.079Z,98195.03
2023-03-29T02:19:17.652Z,98196.69
2023-03-29T02:24:22.591Z,98192.81
2023-03-29T02:29:25.845Z,98203.63
2023-03-29T02:34:34.099Z,98189.72
2023-03-29T02:39:38.499Z,98196.28
2023-03-29T02:44:42.046Z,98177.78
2023-03-29T02:49:45.267Z,98174.75
2023-03-29T02:54:51.398Z,98157.38
2023-03-29T02:59:55.954Z,98138.88
2023-03-29T03:04:59.407Z,98117.25
2023-03-29T03:10:04.076Z,98119.59
2023-03-29T03:15:07.504Z,98126.50
2023-03-29T03:20:13.961Z,98130.31
2023-03-29T03:25:22.327Z,98144.97
2023-03-29T03:30:25.840Z,98132.63
2023-03-29T03:35:48.175Z,98135.28
2023-03-29T03:40:57.112Z,98120.88
2023-03-29T03:46:00.727Z,98131.69
2023-03-29T03:51:03.715Z,98122.34
2023-03-29T03:56:09.486Z,98133.56
2023-03-29T04:01:28.794Z,98134.34
2023-03-29T04:06:47.626Z,98141.66
2023-03-29T04:12:09.412Z,98141.59
2023-03-29T04:17:14.867Z,98137.22
2023-03-29T04:22:31.329Z,98137.44
2023-03-29T04:27:34.597Z,98137.34
2023-03-29T04:32:41.262Z,98134.84
2023-03-29T04:37:45.111Z,98146.38
2023-03-29T04:42:51.868Z,98151.41
2023-03-29T04:48:02.329Z,98152.50
2023-03-29T04:53:06.136Z,98147.03
2023-03-29T04:58:08.998Z,98144.56
2023-03-29T05:03:14.822Z,98144.03
2023-03-29T05:08:32.641Z,98138.19
2023-03-29T05:13:55.936Z,98143.59
2023-03-29T05:19:01.485Z,98141.97
2023-03-29T05:24:06.315Z,98149.78
2023-03-29T05:29:32.950Z,98148.88
2023-03-29T05:35:11.958Z,98141.50
2023-03-29T05:40:14.943Z,98144.16
2023-03-29T05:45:37.375Z,98141.88
2023-03-29T05:50:40.154Z,98142.59
2023-03-29T05:55:43.461Z,98137.94
2023-03-29T06:00:49.913Z,98146.31
2023-03-29T06:06:15.309Z,98140.53
2023-03-29T06:11:18.533Z,98144.22
2023-03-29T06:16:50.283Z,98148.28
2023-03-29T06:21:53.976Z,98146.81
2023-03-29T06:27:00.436Z,98144.44
2023-03-29T06:32:04.136Z,98145.09
2023-03-29T06:37:29.640Z,98147.28
2023-03-29T06:42:58.542Z,98147.13
2023-03-29T06:48:17.826Z,98159.72
2023-03-29T06:53:30.937Z,98163.41
2023-03-29T06:58:37.486Z,98177.28
2023-03-29T07:03:52.104Z,98183.38
2023-03-29T07:09:01.847Z,98184.69
2023-03-29T07:14:30.232Z,98191.81
2023-03-29T07:19:33.347Z,98183.25
2023-03-29T07:24:49.520Z,98190.78
2023-03-29T07:29:52.478Z,98190.75
2023-03-29T07:34:56.015Z,98189.22
2023-03-29T07:40:12.632Z,98210.25
2023-03-29T07:45:35.660Z,98210.22
2023-03-29T07:50:45.818Z,98215.34
2023-03-29T07:55:50.117Z,98218.47
2023-03-29T08:01:18.813Z,98215.53
2023-03-29T08:06:42.676Z,98204.63
2023-03-29T08:11:45.267Z,98211.75
2023-03-29T08:16:57.053Z,98206.09
2023-03-29T08:22:00.740Z,98205.13
2023-03-29T08:27:11.476Z,98200.81
2023-03-29T08:32:14.374Z,98197.75
2023-03-29T08:37:19.323Z,98194.97
2023-03-29T08:42:38.727Z,98197.34
2023-03-29T08:47:48.176Z,98204.22
2023-03-29T08:52:57.962Z,98207.34
2023-03-29T08:58:24.706Z,98206.41
2023-03-29T09:03:31.065Z,98190.91
2023-03-29T09:08:51.005Z,98199.91
2023-03-29T09:14:32.525Z,98195.34
2023-03-29T09:19:52.604Z,98185.75
2023-03-29T09:25:21.702Z,98188.81
2023-03-29T09:30:30.889Z,98180.75
2023-03-29T09:35:49.465Z,98170.81
2023-03-29T09:41:04.484Z,98174.28
2023-03-29T09:46:23.117Z,98167.34
2023-03-29T09:51:28.469Z,98161.63
2023-03-29T09:56:31.818Z,98152.88
2023-03-29T10:01:46.905Z,98155.66
2023-03-29T10:06:53.469Z,98165.78
2023-03-29T10:12:03.830Z,98154.81
2023-03-29T10:17:14.173Z,98139.44
2023-03-29T10:22:24.347Z,98145.53
2023-03-29T10:27:32.277Z,98152.66
2023-03-29T10:32:37.175Z,98139.88
2023-03-29T10:37:49.935Z,98136.94
2023-03-29T10:42:57.807Z,98139.47
2023-03-29T10:48:00.524Z,98125.13
2023-03-29T10:53:06.363Z,98110.53
2023-03-29T10:58:36.471Z,98112.03
2023-03-29T11:04:23.281Z,98107.94
2023-03-29T11:09:43.628Z,98097.00
2023-03-29T11:15:36.707Z,98090.53
2023-03-29T11:20:45.891Z,98091.88
2023-03-29T11:26:04.394Z,98083.78
2023-03-29T11:31:25.931Z,98083.59
2023-03-29T11:36:44.838Z,98086.25
2023-03-29T11:41:53.557Z,98085.09
2023-03-29T11:47:18.734Z,98068.25
2023-03-29T11:52:33.922Z,98060.19
2023-03-29T11:57:43.915Z,98068.66
2023-03-29T12:03:02.329Z,98063.03
2023-03-29T12:08:12.354Z,98033.81
2023-03-29T12:13:21.222Z,98047.63
2023-03-29T12:18:35.171Z,98062.41
2023-03-29T12:23:38.547Z,98060.81
2023-03-29T12:29:15.098Z,98071.63
2023-03-29T12:34:38.958Z,98062.38
2023-03-29T12:40:18.028Z,98064.16
2023-03-29T12:45:43.167Z,98077.84
2023-03-29T12:50:53.549Z,98083.47
2023-03-29T12:56:08.840Z,98093.13
2023-03-29T13:01:23.738Z,98074.50
2023-03-29T13:06:50.534Z,98068.91
2023-03-29T13:12:09.275Z,98074.81
2023-03-29T13:17:31.151Z,98077.56
2023-03-29T13:22:39.682Z,98081.66
2023-03-29T13:28:07.595Z,98079.84
2023-03-29T13:33:16.274Z,98109.47
2023-03-29T13:38:21.339Z,98084.38
2023-03-29T13:43:31.366Z,98091.97
2023-03-29T13:48:51.302Z,98096.91
2023-03-29T13:54:14.007Z,98101.97
2023-03-29T13:59:27.957Z,98096.97
2023-03-29T14:04:52.390Z,98092.19
2023-03-29T14:09:58.495Z,98077.66
2023-03-29T14:15:05.040Z,98078.78
2023-03-29T14:20:09.840Z,98055.75
2023-03-29T14:25:18.221Z,98055.28
2023-03-29T14:30:28.623Z,98055.22
2023-03-29T14:35:33.545Z,98063.84
2023-03-29T14:40:36.365Z,98043.91
2023-03-29T14:45:39.554Z,98033.97
2023-03-29T14:50:44.407Z,98028.56
2023-03-29T14:55:50.661Z,98024.59
2023-03-29T15:00:54.263Z,98027.84
2023-03-29T15:06:04.601Z,98010.75
2023-03-29T15:11:23.489Z,98002.81
2023-03-29T15:16:30.592Z,97989.13
2023-03-29T15:21:35.819Z,97993.06
2023-03-29T15:26:39.090Z,97986.69
2023-03-29T15:31:43.129Z,97965.22
2023-03-29T15:36:46.668Z,97962.06
2023-03-29T15:41:51.648Z,97958.53
2023-03-29T15:47:00.111Z,97944.63
2023-03-29T15:52:02.881Z,97951.84
2023-03-29T15:57:08.784Z,97944.13
2023-03-29T16:02:23.835Z,97943.69
2023-03-29T16:07:26.731Z,97947.78
2023-03-29T16:12:29.416Z,97953.84
2023-03-29T16:17:33.304Z,97950.56
2023-03-29T16:22:36.214Z,97953.34
2023-03-29T16:27:38.809Z,97940.28
2023-03-29T16:32:42.472Z,97935.06
2023-03-29T16:37:47.823Z,97938.16
2023-03-29T16:42:51.509Z,97932.25
2023-03-29T16:47:54.764Z,97919.34
2023-03-29T16:52:57.565Z,97914.13
2023-03-29T16:58:00.449Z,97910.06
2023-03-29T17:03:03.192Z,97912.66
2023-03-29T17:08:06.515Z,97915.75
2023-03-29T17:13:09.771Z,97909.34
2023-03-29T17:18:12.545Z,97937.28
2023-03-29T17:23:15.107Z,97928.63
2023-03-29T17:28:18.085Z,97934.59
2023-03-29T17:33:22.851Z,97910.94
2023-03-29T17:38:27.029Z,97909.31
2023-03-29T17:43:29.825Z,97894.22
2023-03-29T17:48:33.108Z,97901.91
2023-03-29T17:53:36.373Z,97909.84
2023-03-29T17:58:39.430Z,97885.66
2023-03-29T18:03:46.846Z,97889.97
2023-03-29T18:08:49.752Z,97894.66
2023-03-29T18:13:58.596Z,97893.16
2023-03-29T18:19:01.304Z,97899.22
2023-03-29T18:24:03.997Z,97894.81
2023-03-29T18:29:08.545Z,97907.28
2023-03-29T18:34:12.541Z,97891.16
2023-03-29T18:39:15.188Z,97894.66
2023-03-29T18:44:17.993Z,97883.84
2023-03-29T18:49:21.555Z,97884.00
2023-03-29T18:54:24.253Z,97877.63
2023-03-29T18:59:27.095Z,97877.28
2023-03-29T19:04:30.192Z,97876.09
2023-03-29T19:09:32.862Z,97877.78
2023-03-29T19:14:35.471Z,97871.06
2023-03-29T19:19:38.099Z,97891.16
2023-03-29T19:24:40.753Z,97890.09
2023-03-29T19:29:43.326Z,97877.91
2023-03-29T19:34:46.368Z,97886.44
2023-03-29T19:39:48.900Z,97880.69
2023-03-29T19:44:51.428Z,97863.47
2023-03-29T19:49:54.136Z,97853.56
2023-03-29T19:54:58.757Z,97860.25
2023-03-29T20:00:01.673Z,97848.72
2023-03-29T20:05:04.605Z,97839.13
2023-03-29T20:10:07.491Z,97830.13
2023-03-29T20:15:10.693Z,97822.22
2023-03-29T20:20:14.163Z,97814.94
2023-03-29T20:25:16.964Z,97805.94
2023-03-29T20:30:19.661Z,97801.22
2023-03-29T20:35:22.143Z,97799.09
2023-03-29T20:40:24.926Z,97802.31
2023-03-29T20:45:27.908Z,97785.44
2023-03-29T20:50:30.964Z,97785.13
2023-03-29T20:55:39.511Z,97776.75
2023-03-29T21:00:42.000Z,97778.13
2023-03-29T21:05:44.828Z,97772.34
2023-03-29T21:10:48.110Z,97759.25
2023-03-29T21:15:51.336Z,97763.22
2023-03-29T21:20:53.943Z,97760.63
2023-03-29T21:25:57.002Z,97744.63
2023-03-29T21:31:03.405Z,97741.91
2023-03-29T21:36:06.634Z,97737.34
2023-03-29T21:41:12.610Z,97720.31
2023-03-29T21:46:15.699Z,97725.78
2023-03-29T21:51:18.487Z,97713.16
2023-03-29T21:56:22.556Z,97706.94
2023-03-29T22:01:25.246Z,97712.88
2023-03-29T22:06:28.058Z,97711.69
2023-03-29T22:11:31.646Z,97695.84
2023-03-29T22:16:37.407Z,97702.38
2023-03-29T22:21:40.097Z,97699.00
2023-03-29T22:26:45.024Z,97695.81
2023-03-29T22:31:47.698Z,97696.84
2023-03-29T22:36:50.402Z,97696.06
2023-03-29T22:41:52.913Z,97700.16
2023-03-29T22:46:56.081Z,97692.53
2023-03-29T22:51:59.915Z,97692.03
2023-03-29T22:57:02.472Z,97696.19
2023-03-29T23:02:05.226Z,97695.53
2023-03-29T23:07:08.109Z,97693.25
2023-03-29T23:12:10.676Z,97685.75
2023-03-29T23:17:13.639Z,97690.63
2023-03-29T23:22:16.151Z,97691.53
2023-03-29T23:27:19.867Z,97687.91
2023-03-29T23:32:22.392Z,97691.59
2023-03-29T23:37:25.114Z,97696.41
2023-03-29T23:42:29.523Z,97682.34
2023-03-29T23:47:32.122Z,97691.00
2023-03-29T23:52:34.679Z,97687.22
2023-03-29T23:57:37.244Z,97684.97
